Flugplatz Schwandorf

Für EDPF sind keine METAR/TAF Berichte vorhanden.
Es werden die Flugwettermeldungen vom Flugplatz Hohenfels Army Air Field in 28 km Entfernung angezeigt.

Bericht für ETIH

vom 17.07. um 23:56 UTC

kein Wind

Sichtweite 10 km oder mehr

keine Wolken

Temperatur 12.5°C

Taupunkt 12.3°C

Luftfeuchtigkeit 99%

Luftdruck 1014 hPa

ETIH 172356Z AUTO 00000KT 9999 CLR 13/12 A2994 RMK AO2 SLP127 T01250123 10236 20125 51004
Keine Prognose (TAF) verfügbar.
Impressum